KSHR/SHR METAR and TAF weather

Enter ICAO airport designator
Station Type Date Time Source
KSHR METAR 2022/06/28 08:53 UTC NOAA

KSHR 280853Z AUTO 00000KT 10SM CLR 09/07 A3016 RMK AO2 SLP186 T00940067 56010


Station Type Date Time Source
KSHR Decoded METAR 2022/06/28 08:53 UTC NOAA

SHERIDAN COUNTY AIRPORT, WY, United States (KSHR) 44-46N 106-58W 1202M
Jun 28, 2022 - 04:53 AM EDT / 2022.06.28 0853 UTC
Wind: Calm:0
Visibility: 10 mile(s):0
Sky conditions: clear
Temperature: 48.9 F (9.4 C)
Dew Point: 44.1 F (6.7 C)
Relative Humidity: 83%
Pressure (altimeter): 30.16 in. Hg (1021 hPa)
Pressure tendency: 0.03 inches (1.0 hPa) lower than three hours ago
ob: KSHR 280853Z AUTO 00000KT 10SM CLR 09/07 A3016 RMK AO2 SLP186 T00940067 56010
cycle: 9

Station Type Date Time Source
KSHR TAF 2022/06/28 06:36 UTC NOAA

TAF KSHR 280532Z 2806/2906 VRB04KT P6SM FEW200
FM290000 28006KT P6SM VCTS SCT100CB BKN200

Example: see airport list